createdAt,value
2022-09-26T00:01:43.073Z,7.58
2022-09-26T00:04:32.749Z,7.61
2022-09-26T00:07:01.091Z,7.66
2022-09-26T00:09:29.135Z,7.71
2022-09-26T00:11:57.130Z,7.72
2022-09-26T00:14:27.870Z,7.62
2022-09-26T00:16:56.727Z,7.55
2022-09-26T00:19:25.070Z,7.53
2022-09-26T00:21:53.177Z,7.56
2022-09-26T00:24:21.074Z,7.61
2022-09-26T00:26:48.967Z,7.62
2022-09-26T00:29:17.234Z,7.64
2022-09-26T00:31:47.650Z,7.65
2022-09-26T00:34:19.848Z,7.59
2022-09-26T00:36:49.732Z,7.51
2022-09-26T00:39:17.648Z,7.53
2022-09-26T00:41:45.791Z,7.58
2022-09-26T00:44:41.479Z,7.56
2022-09-26T00:47:47.439Z,7.58
2022-09-26T00:50:15.435Z,7.56
2022-09-26T00:52:54.189Z,7.58
2022-09-26T00:55:25.891Z,7.60
2022-09-26T00:58:00.175Z,7.59
2022-09-26T01:00:28.432Z,7.63
2022-09-26T01:02:57.020Z,7.68
2022-09-26T01:05:25.669Z,7.72
2022-09-26T01:07:57.022Z,7.77
2022-09-26T01:10:28.925Z,7.84
2022-09-26T01:13:01.476Z,7.92
2022-09-26T01:15:30.275Z,8.00
2022-09-26T01:17:58.323Z,8.05
2022-09-26T01:20:29.727Z,8.10
2022-09-26T01:23:09.884Z,8.19
2022-09-26T01:26:04.334Z,8.27
2022-09-26T01:28:54.169Z,8.30
2022-09-26T01:31:22.214Z,8.28
2022-09-26T01:34:34.393Z,8.29
2022-09-26T01:37:15.567Z,8.34
2022-09-26T01:40:10.899Z,8.43
2022-09-26T01:42:51.859Z,8.53
2022-09-26T01:45:29.368Z,8.56
2022-09-26T01:48:17.035Z,8.58
2022-09-26T01:51:03.862Z,8.56
2022-09-26T01:53:42.721Z,8.54
2022-09-26T01:56:15.483Z,8.56
2022-09-26T01:58:59.756Z,8.57
2022-09-26T02:01:29.918Z,8.56
2022-09-26T02:04:04.094Z,8.51
2022-09-26T02:06:51.758Z,8.47
2022-09-26T02:09:28.662Z,8.45
2022-09-26T02:12:01.584Z,8.46
2022-09-26T02:14:35.033Z,8.46
2022-09-26T02:17:17.163Z,8.49
2022-09-26T02:19:58.576Z,8.58
2022-09-26T02:22:34.041Z,8.68
2022-09-26T02:25:03.151Z,8.76
2022-09-26T02:27:31.458Z,8.77
2022-09-26T02:29:59.835Z,8.78
2022-09-26T02:32:30.615Z,8.76
2022-09-26T02:35:00.093Z,8.75
2022-09-26T02:37:31.102Z,8.74
2022-09-26T02:39:59.257Z,8.76
2022-09-26T02:42:38.149Z,8.79
2022-09-26T02:45:27.129Z,8.83
2022-09-26T02:48:17.174Z,8.86
2022-09-26T02:50:48.185Z,8.83
2022-09-26T02:53:41.260Z,8.79
2022-09-26T02:56:26.873Z,8.79
2022-09-26T02:59:02.522Z,8.81
2022-09-26T03:01:55.351Z,8.83
2022-09-26T03:05:03.375Z,8.83
2022-09-26T03:07:38.067Z,8.80
2022-09-26T03:10:09.101Z,8.81
2022-09-26T03:12:38.323Z,8.79
2022-09-26T03:15:08.158Z,8.81
2022-09-26T03:17:39.504Z,8.77
2022-09-26T03:20:14.890Z,8.72
2022-09-26T03:22:45.059Z,8.69
2022-09-26T03:25:20.177Z,8.69
2022-09-26T03:27:55.126Z,8.72
2022-09-26T03:30:24.617Z,8.78
2022-09-26T03:33:11.258Z,8.88
2022-09-26T03:35:39.075Z,8.98
2022-09-26T03:38:10.160Z,9.05
2022-09-26T03:40:42.620Z,9.09
2022-09-26T03:43:36.943Z,9.08
2022-09-26T03:46:07.657Z,9.07
2022-09-26T03:48:35.843Z,9.07
2022-09-26T03:51:09.909Z,9.09
2022-09-26T03:53:42.034Z,9.12
2022-09-26T03:56:15.252Z,9.19
2022-09-26T03:58:43.817Z,9.23
2022-09-26T04:01:18.482Z,9.28
2022-09-26T04:03:50.889Z,9.32
2022-09-26T04:06:21.129Z,9.37
2022-09-26T04:08:52.932Z,9.44
2022-09-26T04:11:24.762Z,9.50
2022-09-26T04:13:54.186Z,9.55
2022-09-26T04:16:25.700Z,9.54
2022-09-26T04:18:58.306Z,9.52
2022-09-26T04:21:27.675Z,9.51
2022-09-26T04:23:56.463Z,9.49
2022-09-26T04:26:24.874Z,9.52
2022-09-26T04:28:56.140Z,9.58
2022-09-26T04:31:29.652Z,9.62
2022-09-26T04:34:05.241Z,9.66
2022-09-26T04:36:33.635Z,9.69
2022-09-26T04:39:01.937Z,9.72
2022-09-26T04:41:31.603Z,9.78
2022-09-26T04:44:02.027Z,9.83
2022-09-26T04:46:31.593Z,9.90
2022-09-26T04:49:02.069Z,9.95
2022-09-26T04:51:31.825Z,9.95
2022-09-26T04:54:00.266Z,9.95
2022-09-26T04:56:30.368Z,9.96
2022-09-26T04:58:59.229Z,9.97
2022-09-26T05:01:32.837Z,10.02
2022-09-26T05:04:10.056Z,10.08
2022-09-26T05:06:39.349Z,10.14
2022-09-26T05:09:09.662Z,10.18
2022-09-26T05:11:57.546Z,10.22
2022-09-26T05:14:25.599Z,10.27
2022-09-26T05:16:53.481Z,10.34
2022-09-26T05:19:21.562Z,10.43
2022-09-26T05:22:21.526Z,10.56
2022-09-26T05:25:08.566Z,10.64
2022-09-26T05:27:37.283Z,10.71
2022-09-26T05:30:05.551Z,10.75
2022-09-26T05:32:34.283Z,10.74
2022-09-26T05:35:05.961Z,10.71
2022-09-26T05:37:37.542Z,10.71
2022-09-26T05:40:24.897Z,10.77
2022-09-26T05:43:03.308Z,10.86
2022-09-26T05:45:31.447Z,10.92
2022-09-26T05:48:00.821Z,10.97
2022-09-26T05:50:28.815Z,10.98
2022-09-26T05:53:03.496Z,10.97
2022-09-26T05:55:34.376Z,10.92
2022-09-26T05:58:17.370Z,10.86
2022-09-26T06:01:12.645Z,10.83
2022-09-26T06:12:51.469Z,10.68
2022-09-26T06:15:19.704Z,10.67
2022-09-26T06:17:48.424Z,10.68
2022-09-26T06:20:17.445Z,10.68
2022-09-26T06:22:45.329Z,10.71
2022-09-26T06:25:14.662Z,10.74
2022-09-26T06:27:42.751Z,10.79
2022-09-26T06:30:11.758Z,10.84
2022-09-26T06:32:40.229Z,10.90
2022-09-26T06:35:37.624Z,10.97
2022-09-26T06:38:18.189Z,11.00
2022-09-26T06:40:47.429Z,11.04
2022-09-26T06:43:15.561Z,11.10
2022-09-26T06:46:02.560Z,11.17
2022-09-26T06:48:42.770Z,11.23
2022-09-26T06:51:22.054Z,11.29
2022-09-26T06:53:49.984Z,11.36
2022-09-26T06:56:21.733Z,11.42
2022-09-26T06:58:49.997Z,11.48
2022-09-26T07:01:21.255Z,11.53
2022-09-26T07:04:06.616Z,11.56
2022-09-26T07:06:38.907Z,11.61
2022-09-26T07:09:12.258Z,11.66
2022-09-26T07:12:13.471Z,11.72
2022-09-26T07:14:39.456Z,11.76
2022-09-26T07:17:18.301Z,11.83
2022-09-26T07:20:03.709Z,11.88
2022-09-26T07:22:51.867Z,11.89
2022-09-26T07:25:19.781Z,11.91
2022-09-26T07:27:52.410Z,11.91
2022-09-26T07:30:24.327Z,11.90
2022-09-26T07:33:03.790Z,11.90
2022-09-26T07:35:46.240Z,11.91
2022-09-26T07:38:14.490Z,11.94
2022-09-26T07:40:43.411Z,11.98
2022-09-26T07:43:20.542Z,12.05
2022-09-26T07:46:12.687Z,12.11
2022-09-26T07:49:03.130Z,12.15
2022-09-26T07:51:49.800Z,12.17
2022-09-26T07:54:21.285Z,12.17
2022-09-26T07:57:08.520Z,12.23
2022-09-26T07:59:54.424Z,12.27
2022-09-26T08:02:45.682Z,12.31
2022-09-26T08:05:20.156Z,12.28
2022-09-26T08:07:49.943Z,12.23
2022-09-26T08:10:36.860Z,12.12
2022-09-26T08:13:29.099Z,12.09
2022-09-26T08:16:20.754Z,12.07
2022-09-26T08:18:50.375Z,12.08
2022-09-26T08:21:19.798Z,12.13
2022-09-26T08:23:48.151Z,12.20
2022-09-26T08:26:48.684Z,12.22
2022-09-26T08:29:38.011Z,12.23
2022-09-26T08:32:05.950Z,12.30
2022-09-26T08:34:35.646Z,12.42
2022-09-26T08:37:31.323Z,12.52
2022-09-26T08:40:29.166Z,12.59
2022-09-26T08:43:14.826Z,12.59
2022-09-26T08:46:49.022Z,12.54
2022-09-26T08:49:31.281Z,12.46
2022-09-26T08:52:04.800Z,12.43
2022-09-26T08:54:40.704Z,12.41
2022-09-26T08:57:34.490Z,12.37
2022-09-26T09:00:25.010Z,12.34
2022-09-26T09:03:50.782Z,12.33
2022-09-26T09:06:19.226Z,12.32
2022-09-26T09:08:52.340Z,12.31
2022-09-26T09:11:41.031Z,12.30
2022-09-26T09:14:27.926Z,12.25
2022-09-26T09:17:29.356Z,12.23
2022-09-26T09:20:38.685Z,12.24
2022-09-26T09:23:43.185Z,12.28
2022-09-26T09:29:28.037Z,12.34
2022-09-26T09:32:20.384Z,12.42
2022-09-26T09:35:16.333Z,12.49
2022-09-26T09:38:19.908Z,12.60
2022-09-26T09:41:26.792Z,12.68
2022-09-26T09:43:59.179Z,12.82
2022-09-26T09:46:41.595Z,12.90
2022-09-26T09:49:09.597Z,12.95
2022-09-26T09:52:05.081Z,13.03
2022-09-26T09:55:07.420Z,13.09
2022-09-26T09:58:04.405Z,13.21
2022-09-26T10:00:38.068Z,13.28
2022-09-26T10:03:55.604Z,13.37
2022-09-26T10:06:44.741Z,13.53
2022-09-26T10:09:40.528Z,13.71
2022-09-26T10:12:30.830Z,13.99
2022-09-26T10:15:27.454Z,14.15
2022-09-26T10:18:26.720Z,14.30
2022-09-26T10:21:17.930Z,14.52
2022-09-26T10:23:51.324Z,14.71
2022-09-26T10:26:35.260Z,14.93
2022-09-26T10:29:34.296Z,15.00
2022-09-26T10:32:04.151Z,15.04
2022-09-26T10:34:38.323Z,15.19
2022-09-26T10:37:20.631Z,15.25
2022-09-26T10:40:12.442Z,15.24
2022-09-26T10:42:44.290Z,15.18
2022-09-26T10:45:20.438Z,15.19
2022-09-26T10:48:22.085Z,15.16
2022-09-26T10:51:09.608Z,15.07
2022-09-26T10:53:46.173Z,15.01
2022-09-26T10:56:26.373Z,15.05
2022-09-26T10:59:10.447Z,15.17
2022-09-26T11:01:51.443Z,15.34
2022-09-26T11:04:42.872Z,15.48
2022-09-26T11:07:44.645Z,15.62
2022-09-26T11:10:41.800Z,15.69
2022-09-26T11:13:25.385Z,15.61
2022-09-26T11:16:01.717Z,15.53
2022-09-26T11:18:36.360Z,15.51
2022-09-26T11:21:39.733Z,15.49
2022-09-26T11:24:28.575Z,15.48
2022-09-26T11:27:20.795Z,15.47
2022-09-26T11:30:12.659Z,15.58
2022-09-26T11:32:57.562Z,15.55
2022-09-26T11:36:13.157Z,15.52
2022-09-26T11:38:55.718Z,15.49
2022-09-26T11:41:42.279Z,15.39
2022-09-26T11:44:21.011Z,15.43
2022-09-26T11:47:34.444Z,15.42
2022-09-26T11:50:23.844Z,15.49
2022-09-26T11:53:41.278Z,15.43
2022-09-26T11:56:34.535Z,15.42
2022-09-26T11:59:20.908Z,15.54
2022-09-26T12:02:15.867Z,15.75
2022-09-26T12:05:13.795Z,15.95
2022-09-26T12:07:53.742Z,15.94
2022-09-26T12:10:46.789Z,15.85
2022-09-26T12:13:49.591Z,15.98
2022-09-26T12:16:18.405Z,16.04
2022-09-26T12:19:05.384Z,16.06
2022-09-26T12:22:05.457Z,16.12
2022-09-26T12:24:51.651Z,16.25
2022-09-26T12:27:37.552Z,16.32
2022-09-26T12:30:16.120Z,16.34
2022-09-26T12:32:56.764Z,16.49
2022-09-26T12:35:44.917Z,16.57
2022-09-26T12:38:20.521Z,16.64
2022-09-26T12:43:58.083Z,17.04
2022-09-26T12:46:58.797Z,17.07
2022-09-26T12:49:55.286Z,17.20
2022-09-26T12:52:44.662Z,17.49
2022-09-26T12:55:41.899Z,17.89
2022-09-26T12:58:40.598Z,18.21
2022-09-26T13:01:28.833Z,18.09
2022-09-26T13:04:32.232Z,17.81
2022-09-26T13:07:18.905Z,17.59
2022-09-26T13:10:18.314Z,17.47
2022-09-26T13:13:13.676Z,17.41
2022-09-26T13:16:05.357Z,17.25
2022-09-26T13:18:40.036Z,17.17
2022-09-26T13:21:14.084Z,17.25
2022-09-26T13:23:56.149Z,17.37
2022-09-26T13:26:29.124Z,17.43
2022-09-26T13:29:17.603Z,17.50
2022-09-26T13:31:56.221Z,17.66
2022-09-26T13:34:35.012Z,17.73
2022-09-26T13:37:05.232Z,17.56
2022-09-26T13:39:48.260Z,17.45
2022-09-26T13:42:20.810Z,17.44
2022-09-26T13:45:04.372Z,17.55
2022-09-26T13:47:44.980Z,17.57
2022-09-26T13:50:24.340Z,17.65
2022-09-26T13:52:55.348Z,17.66
2022-09-26T13:55:25.879Z,17.84
2022-09-26T13:58:09.348Z,18.13
2022-09-26T14:00:48.882Z,18.34
2022-09-26T14:03:43.008Z,18.47
2022-09-26T14:06:26.461Z,18.55
2022-09-26T14:09:18.055Z,18.63
2022-09-26T14:11:49.903Z,18.57
2022-09-26T14:14:22.225Z,18.41
2022-09-26T14:16:53.752Z,18.19
2022-09-26T14:19:36.484Z,18.02
2022-09-26T14:22:20.854Z,17.89
2022-09-26T14:24:50.447Z,17.73
2022-09-26T14:27:21.211Z,17.60
2022-09-26T14:29:51.351Z,17.62
2022-09-26T14:32:40.109Z,17.60
2022-09-26T14:35:35.976Z,17.63
2022-09-26T14:38:16.424Z,17.63
2022-09-26T14:41:00.576Z,17.58
2022-09-26T14:43:31.417Z,17.50
2022-09-26T14:46:05.865Z,17.41
2022-09-26T14:48:36.537Z,17.25
2022-09-26T14:51:24.919Z,17.12
2022-09-26T14:54:22.782Z,17.03
2022-09-26T14:57:00.786Z,16.84
2022-09-26T14:59:34.704Z,16.68
2022-09-26T15:02:14.755Z,16.60
2022-09-26T15:04:45.819Z,16.54
2022-09-26T15:07:20.839Z,16.49
2022-09-26T15:09:58.974Z,16.47
2022-09-26T15:12:39.178Z,16.38
2022-09-26T15:15:34.864Z,16.27
2022-09-26T15:18:17.873Z,16.18
2022-09-26T15:20:54.719Z,16.25
2022-09-26T15:23:28.761Z,16.34
2022-09-26T15:26:00.286Z,16.34
2022-09-26T15:28:34.598Z,16.40
2022-09-26T15:31:22.476Z,16.41
2022-09-26T15:33:55.131Z,16.31
2022-09-26T15:36:23.216Z,16.23
2022-09-26T15:38:51.335Z,16.19
2022-09-26T15:41:39.700Z,16.07
2022-09-26T15:44:19.522Z,15.97
2022-09-26T15:47:05.874Z,15.92
2022-09-26T15:49:35.310Z,15.89
2022-09-26T15:52:04.635Z,15.87
2022-09-26T15:54:33.410Z,15.81
2022-09-26T15:57:04.269Z,15.69
2022-09-26T15:59:41.480Z,15.77
2022-09-26T16:02:30.365Z,16.22
2022-09-26T16:04:59.798Z,16.26
2022-09-26T16:07:32.980Z,16.27
2022-09-26T16:10:04.588Z,16.37
2022-09-26T16:12:34.263Z,16.28
2022-09-26T16:15:05.328Z,16.20
2022-09-26T16:17:49.057Z,16.28
2022-09-26T16:20:42.154Z,16.24
2022-09-26T16:23:27.268Z,16.18
2022-09-26T16:25:56.630Z,16.12
2022-09-26T16:28:44.753Z,16.01
2022-09-26T16:31:32.060Z,15.89
2022-09-26T16:34:02.606Z,15.87
2022-09-26T16:36:34.609Z,15.87
2022-09-26T16:39:08.538Z,15.78
2022-09-26T16:42:13.445Z,15.74
2022-09-26T16:44:57.760Z,15.75
2022-09-26T16:47:45.381Z,15.67
2022-09-26T16:50:31.894Z,15.55
2022-09-26T16:53:07.232Z,15.30
2022-09-26T16:55:40.517Z,15.14
2022-09-26T16:58:17.146Z,15.11
2022-09-26T17:01:08.334Z,15.04
2022-09-26T17:03:41.257Z,15.09
2022-09-26T17:06:10.129Z,15.13
2022-09-26T17:08:38.058Z,14.80
2022-09-26T17:11:14.652Z,14.53
2022-09-26T17:13:43.966Z,14.52
2022-09-26T17:16:12.859Z,14.99
2022-09-26T17:18:44.478Z,15.28
2022-09-26T17:21:12.714Z,15.15
2022-09-26T17:24:33.247Z,14.88
2022-09-26T17:27:10.525Z,14.54
2022-09-26T17:29:48.674Z,14.16
2022-09-26T17:32:33.378Z,13.71
2022-09-26T17:35:08.576Z,13.35
2022-09-26T17:37:36.543Z,13.09
2022-09-26T17:40:25.351Z,12.83
2022-09-26T17:42:56.855Z,12.49
2022-09-26T17:45:33.878Z,12.24
2022-09-26T17:48:12.406Z,12.07
2022-09-26T17:50:43.028Z,11.84
2022-09-26T17:53:21.156Z,11.67
2022-09-26T17:55:52.149Z,11.49
2022-09-26T17:58:21.070Z,11.31
2022-09-26T18:00:52.053Z,11.19
2022-09-26T18:03:23.880Z,11.10
2022-09-26T18:05:53.351Z,11.02
2022-09-26T18:08:26.830Z,10.90
2022-09-26T18:10:58.227Z,10.75
2022-09-26T18:13:34.607Z,10.64
2022-09-26T18:16:03.574Z,10.55
2022-09-26T18:18:32.961Z,10.39
2022-09-26T18:21:05.460Z,10.27
2022-09-26T18:23:46.547Z,10.17
2022-09-26T18:26:32.687Z,10.09
2022-09-26T18:29:06.722Z,10.07
2022-09-26T18:31:41.230Z,10.08
2022-09-26T18:34:13.594Z,10.03
2022-09-26T18:36:41.903Z,9.97
2022-09-26T18:39:10.875Z,9.92
2022-09-26T18:41:39.688Z,9.83
2022-09-26T18:44:20.378Z,9.75
2022-09-26T18:46:49.352Z,9.69
2022-09-26T18:49:18.617Z,9.64
2022-09-26T18:51:47.363Z,9.61
2022-09-26T18:54:17.645Z,9.63
2022-09-26T18:57:04.767Z,9.65
2022-09-26T18:59:33.128Z,9.67
2022-09-26T19:02:04.334Z,9.65
2022-09-26T19:04:34.186Z,9.48
2022-09-26T19:07:06.981Z,9.31
2022-09-26T19:09:36.734Z,9.19
2022-09-26T19:12:04.772Z,9.16
2022-09-26T19:14:33.491Z,9.17
2022-09-26T19:17:01.728Z,9.17
2022-09-26T19:19:32.560Z,9.09
2022-09-26T19:22:11.743Z,9.00
2022-09-26T19:24:49.174Z,8.95
2022-09-26T19:27:27.250Z,8.95
2022-09-26T19:30:05.006Z,8.95
2022-09-26T19:32:39.759Z,8.97
2022-09-26T19:35:30.525Z,8.97
2022-09-26T19:37:59.793Z,8.86
2022-09-26T19:40:28.627Z,8.79
2022-09-26T19:42:57.502Z,8.78
2022-09-26T19:45:26.534Z,8.82
2022-09-26T19:47:56.242Z,8.86
2022-09-26T19:50:26.082Z,8.88
2022-09-26T19:52:57.628Z,8.73
2022-09-26T19:55:28.956Z,8.66
2022-09-26T19:58:13.828Z,8.63
2022-09-26T20:00:44.858Z,8.66
2022-09-26T20:03:18.068Z,8.69
2022-09-26T20:05:46.792Z,8.63
2022-09-26T20:08:23.986Z,8.62
2022-09-26T20:10:53.525Z,8.58
2022-09-26T20:13:21.778Z,8.48
2022-09-26T20:15:50.287Z,8.44
2022-09-26T20:18:21.332Z,8.39
2022-09-26T20:20:54.900Z,8.37
2022-09-26T20:23:26.073Z,8.37
2022-09-26T20:25:55.576Z,8.34
2022-09-26T20:28:23.563Z,8.31
2022-09-26T20:30:51.583Z,8.29
2022-09-26T20:33:23.806Z,8.31
2022-09-26T20:36:04.682Z,8.32
2022-09-26T20:38:46.138Z,8.33
2022-09-26T20:41:22.371Z,8.30
2022-09-26T20:43:57.351Z,8.30
2022-09-26T20:46:26.607Z,8.34
2022-09-26T20:48:54.501Z,8.40
2022-09-26T20:51:28.909Z,8.40
2022-09-26T20:54:00.155Z,8.41
2022-09-26T20:56:28.868Z,8.40
2022-09-26T20:58:56.877Z,8.43
2022-09-26T21:01:28.053Z,8.50
2022-09-26T21:03:56.958Z,8.59
2022-09-26T21:06:35.155Z,8.56
2022-09-26T21:09:03.615Z,8.48
2022-09-26T21:11:31.623Z,8.39
2022-09-26T21:13:59.532Z,8.32
2022-09-26T21:16:27.442Z,8.27
2022-09-26T21:18:55.391Z,8.24
2022-09-26T21:21:25.829Z,8.20
2022-09-26T21:24:16.437Z,8.12
2022-09-26T21:26:44.592Z,8.09
2022-09-26T21:29:17.324Z,8.10
2022-09-26T21:31:49.961Z,8.02
2022-09-26T21:34:23.205Z,7.95
2022-09-26T21:36:54.043Z,7.94
2022-09-26T21:39:24.850Z,7.96
2022-09-26T21:41:56.989Z,7.95
2022-09-26T21:44:34.100Z,7.94
2022-09-26T21:47:02.002Z,7.90
2022-09-26T21:49:31.046Z,7.89
2022-09-26T21:52:08.021Z,7.83
2022-09-26T21:54:41.173Z,7.75
2022-09-26T21:57:20.789Z,7.73
2022-09-26T21:59:51.703Z,7.73
2022-09-26T22:02:20.661Z,7.70
2022-09-26T22:04:48.627Z,7.65
2022-09-26T22:07:16.636Z,7.62
2022-09-26T22:09:44.604Z,7.61
2022-09-26T22:12:12.519Z,7.62
2022-09-26T22:14:40.979Z,7.54
2022-09-26T22:17:08.875Z,7.51
2022-09-26T22:19:36.911Z,7.52
2022-09-26T22:22:05.064Z,7.53
2022-09-26T22:24:33.372Z,7.44
2022-09-26T22:27:01.350Z,7.40
2022-09-26T22:29:29.317Z,7.47
2022-09-26T22:31:57.222Z,7.49
2022-09-26T22:34:26.477Z,7.50
2022-09-26T22:36:54.381Z,7.52
2022-09-26T22:39:22.255Z,7.43
2022-09-26T22:41:50.185Z,7.44
2022-09-26T22:44:18.096Z,7.41
2022-09-26T22:46:45.954Z,7.35
2022-09-26T22:49:13.848Z,7.28
2022-09-26T22:51:41.832Z,7.26
2022-09-26T22:54:09.690Z,7.25
2022-09-26T22:56:37.520Z,7.27
2022-09-26T22:59:05.782Z,7.35
2022-09-26T23:01:33.692Z,7.41
2022-09-26T23:04:02.007Z,7.44
2022-09-26T23:06:31.418Z,7.35
2022-09-26T23:08:59.492Z,7.27
2022-09-26T23:11:28.057Z,7.14
2022-09-26T23:13:55.926Z,7.01
2022-09-26T23:16:28.721Z,6.96
2022-09-26T23:18:57.623Z,6.93
2022-09-26T23:21:27.629Z,6.87
2022-09-26T23:23:57.934Z,6.83
2022-09-26T23:26:31.903Z,6.79
2022-09-26T23:29:00.509Z,6.72
2022-09-26T23:31:29.333Z,6.68
2022-09-26T23:33:57.643Z,6.70
2022-09-26T23:36:26.257Z,6.75
2022-09-26T23:38:56.634Z,6.82
2022-09-26T23:41:24.554Z,6.88
2022-09-26T23:43:52.484Z,6.83
2022-09-26T23:46:20.456Z,6.76
2022-09-26T23:48:48.425Z,6.74
2022-09-26T23:51:16.369Z,6.71
2022-09-26T23:53:44.422Z,6.65
2022-09-26T23:56:14.244Z,6.58
2022-09-26T23:58:42.582Z,6.50
